Time;durP1;ratioP1;P1;durP2;ratioP2;P2;SDS_P1;SDS_P2;PMS_P1;PMS_P2;Temp;Humidity;BMP_temperature;BMP_pressure;BME280_temperature;BME280_humidity;BME280_pressure;Samples;Min_cycle;Max_cycle;Signal;HPM_P1;HPM_P2
2023/01/29 00:02:20;;;;;;;63.97;54.70;;;11.40;63.60;;;;;;4941390;28;95487;-60
2023/01/29 00:04:46;;;;;;;64.77;55.00;;;11.30;63.70;;;;;;4945234;28;95633;-59
2023/01/29 00:07:12;;;;;;;64.70;55.13;;;11.40;63.90;;;;;;4942482;28;95795;-60
2023/01/29 00:09:38;;;;;;;63.77;55.00;;;11.30;63.70;;;;;;4927300;28;95434;-59
2023/01/29 00:12:04;;;;;;;62.33;54.27;;;11.30;63.80;;;;;;4930308;28;95824;-60
2023/01/29 00:14:30;;;;;;;62.77;52.77;;;12.30;62.10;;;;;;4931778;28;94362;-56
2023/01/29 00:16:55;;;;;;;63.93;54.50;;;13.60;58.50;;;;;;4933403;28;93821;-52
2023/01/29 00:19:21;;;;;;;65.33;53.93;;;14.60;55.70;;;;;;4945877;28;99587;-60
2023/01/29 00:21:47;;;;;;;64.53;53.73;;;15.30;53.70;;;;;;4929494;28;92768;-56
2023/01/29 00:24:12;;;;;;;66.45;55.33;;;15.80;52.40;;;;;;4940046;28;94488;-60
2023/01/29 00:26:38;;;;;;;64.33;54.60;;;16.20;51.20;;;;;;4941615;28;93883;-60
2023/01/29 00:29:05;;;;;;;64.47;52.97;;;16.50;50.30;;;;;;4941372;28;92412;-61
2023/01/29 00:31:30;;;;;;;66.03;53.92;;;16.70;49.70;;;;;;4935602;28;93902;-60
2023/01/29 00:33:57;;;;;;;63.93;54.67;;;16.90;49.40;;;;;;4953069;28;91559;-61
2023/01/29 00:36:23;;;;;;;64.20;53.97;;;17.00;48.90;;;;;;4942243;28;95581;-59
2023/01/29 00:39:01;;;;;;;64.23;53.33;;;16.80;48.70;;;;;;4940636;28;93741;-59
2023/01/29 00:47:00;;;;;;;61.80;53.40;;;16.30;49.60;;;;;;4951645;28;92666;-56
2023/01/29 00:49:26;;;;;;;63.55;54.35;;;15.90;50.80;;;;;;4931875;28;91251;-60
2023/01/29 00:54:36;;;;;;;59.57;51.93;;;15.30;51.70;;;;;;4937739;28;91228;-59
2023/01/29 00:57:02;;;;;;;62.73;53.73;;;15.10;52.20;;;;;;4923615;28;91664;-59
2023/01/29 00:59:28;;;;;;;60.17;52.78;;;14.90;52.60;;;;;;4931472;28;93665;-60
2023/01/29 01:04:38;;;;;;;60.90;52.80;;;14.50;53.90;;;;;;4948698;28;94093;-60
2023/01/29 01:07:05;;;;;;;61.88;53.60;;;14.20;54.80;;;;;;4941247;28;90170;-59
2023/01/29 01:12:15;;;;;;;62.63;52.93;;;13.70;56.00;;;;;;4931129;28;94270;-55
2023/01/29 01:14:42;;;;;;;63.43;53.87;;;13.40;57.00;;;;;;4924479;28;93388;-58
2023/01/29 01:17:08;;;;;;;64.73;54.23;;;13.10;57.70;;;;;;4935591;28;95562;-58
2023/01/29 01:19:34;;;;;;;60.20;53.17;;;12.80;58.30;;;;;;4939003;28;96098;-55
2023/01/29 01:22:00;;;;;;;65.78;55.10;;;12.70;58.80;;;;;;4930173;28;92609;-55
2023/01/29 01:24:25;;;;;;;63.97;54.47;;;12.60;59.10;;;;;;4945654;28;93612;-61
2023/01/29 01:26:51;;;;;;;65.23;54.90;;;12.50;59.30;;;;;;4943220;28;90101;-60
2023/01/29 01:29:16;;;;;;;65.03;55.10;;;12.50;59.50;;;;;;4943389;28;93719;-60
2023/01/29 01:31:42;;;;;;;63.40;53.73;;;12.30;59.70;;;;;;4937381;28;89539;-60
2023/01/29 01:34:08;;;;;;;61.27;53.10;;;12.30;59.90;;;;;;4940396;28;91900;-58
2023/01/29 01:36:33;;;;;;;63.13;53.80;;;12.20;59.80;;;;;;4939139;28;91035;-59
2023/01/29 01:38:59;;;;;;;62.37;52.57;;;12.20;60.90;;;;;;4935565;28;93432;-60
2023/01/29 01:41:25;;;;;;;62.30;53.17;;;12.10;60.40;;;;;;4938120;28;91605;-60
2023/01/29 01:43:54;;;;;;;60.57;51.90;;;12.00;60.50;;;;;;4954508;28;90177;-60
2023/01/29 01:46:21;;;;;;;63.20;53.90;;;12.00;60.70;;;;;;4943892;28;91017;-60
2023/01/29 01:48:54;;;;;;;66.27;54.30;;;11.90;60.80;;;;;;4937464;28;93028;-58
2023/01/29 01:51:22;;;;;;;59.73;52.13;;;11.90;61.00;;;;;;4942049;28;90556;-58
2023/01/29 01:54:07;;;;;;;63.77;53.70;;;11.80;61.20;;;;;;4939099;28;91344;-60
2023/01/29 01:56:39;;;;;;;64.07;52.87;;;11.80;61.30;;;;;;4931928;28;93864;-61
2023/01/29 01:59:09;;;;;;;63.23;53.60;;;11.80;61.40;;;;;;4937618;28;90800;-52
2023/01/29 02:01:37;;;;;;;60.20;53.37;;;11.80;61.20;;;;;;4935896;28;92926;-60
2023/01/29 02:09:50;;;;;;;63.10;53.80;;;11.70;61.90;;;;;;4931188;28;90449;-56
2023/01/29 02:12:17;;;;;;;64.07;53.83;;;11.60;62.10;;;;;;4939699;28;95577;-60
2023/01/29 02:14:43;;;;;;;61.27;53.63;;;11.60;61.90;;;;;;4928272;28;93913;-60
2023/01/29 02:17:15;;;;;;;62.30;52.67;;;11.60;61.80;;;;;;4939643;28;92558;-57
2023/01/29 02:19:56;;;;;;;62.75;53.95;;;11.60;61.60;;;;;;4948204;28;90027;-57
2023/01/29 02:23:00;;;;;;;59.70;52.13;;;11.60;61.50;;;;;;4930467;28;96294;-60
2023/01/29 02:26:05;;;;;;;62.83;53.53;;;11.70;61.50;;;;;;4940183;28;91257;-61
2023/01/29 02:28:43;;;;;;;63.53;53.67;;;11.60;61.60;;;;;;4937967;28;92446;-59
2023/01/29 02:31:19;;;;;;;62.27;53.23;;;11.60;61.80;;;;;;4927181;28;92651;-54
2023/01/29 02:34:03;;;;;;;61.70;52.40;;;11.60;61.70;;;;;;4939208;28;93112;-55
2023/01/29 02:36:41;;;;;;;61.57;53.30;;;11.60;61.70;;;;;;4938489;28;90660;-60
2023/01/29 02:39:32;;;;;;;61.80;53.33;;;11.50;62.10;;;;;;4934653;28;93155;-60
2023/01/29 02:42:26;;;;;;;62.17;53.65;;;11.50;61.90;;;;;;4944953;28;90168;-57
2023/01/29 02:44:55;;;;;;;62.80;54.50;;;11.50;62.20;;;;;;4935496;28;95096;-60
2023/01/29 02:47:28;;;;;;;63.50;54.57;;;11.40;62.40;;;;;;4926240;28;92307;-50
2023/01/29 02:50:12;;;;;;;61.47;53.33;;;11.40;62.50;;;;;;4945744;28;92393;-59
2023/01/29 02:53:19;;;;;;;63.57;53.63;;;11.40;62.40;;;;;;4925402;28;90164;-60
2023/01/29 02:55:54;;;;;;;59.87;52.63;;;11.30;62.80;;;;;;4920560;28;91552;-57
2023/01/29 02:58:57;;;;;;;59.77;52.70;;;11.30;62.50;;;;;;4938476;28;91155;-49
2023/01/29 03:01:37;;;;;;;61.80;53.17;;;11.30;62.70;;;;;;4928653;28;92448;-60
2023/01/29 03:04:09;;;;;;;60.13;52.37;;;11.30;63.10;;;;;;4941935;28;89820;-60
2023/01/29 03:07:02;;;;;;;61.07;53.37;;;11.30;62.80;;;;;;4927807;28;91922;-59
2023/01/29 03:09:36;;;;;;;63.07;53.73;;;11.20;62.80;;;;;;4931178;28;95704;-59
2023/01/29 03:12:27;;;;;;;62.03;53.37;;;11.30;62.70;;;;;;4926745;28;90202;-58
2023/01/29 03:15:11;;;;;;;64.88;54.92;;;11.30;62.80;;;;;;4946086;28;90076;-60
2023/01/29 03:17:48;;;;;;;61.53;53.23;;;11.30;62.80;;;;;;4942375;28;91956;-60
2023/01/29 03:20:21;;;;;;;60.80;52.47;;;11.30;62.80;;;;;;4937570;28;91985;-60
2023/01/29 03:22:57;;;;;;;64.03;54.43;;;11.30;62.90;;;;;;4945555;28;90591;-51
2023/01/29 03:33:53;;;;;;;;;;;11.20;63.10;;;;;;4932272;28;92318;-57
2023/01/29 03:36:36;;;;;;;60.27;52.37;;;11.20;62.90;;;;;;4948344;28;89657;-60
2023/01/29 03:39:04;;;;;;;61.07;52.63;;;11.20;62.80;;;;;;4927519;28;92176;-51
2023/01/29 03:41:35;;;;;;;63.77;53.70;;;11.20;62.80;;;;;;4944895;28;94164;-59
2023/01/29 03:44:46;;;;;;;63.97;54.57;;;11.20;63.20;;;;;;4930394;28;93223;-60
2023/01/29 03:47:23;;;;;;;60.70;52.63;;;11.40;63.60;;;;;;4933476;28;93154;-51
2023/01/29 03:50:07;;;;;;;59.27;51.67;;;12.50;60.80;;;;;;4932153;28;90594;-60
2023/01/29 03:52:50;;;;;;;60.03;52.03;;;13.90;56.90;;;;;;4928001;28;94603;-59
2023/01/29 03:55:38;;;;;;;61.70;51.93;;;14.90;54.00;;;;;;4930951;28;94606;-61
2023/01/29 03:58:23;;;;;;;59.67;51.50;;;15.60;52.00;;;;;;4927041;28;91834;-60
2023/01/29 04:01:03;;;;;;;61.67;52.77;;;16.30;50.30;;;;;;4939152;28;93475;-60
2023/01/29 04:03:36;;;;;;;61.93;52.93;;;16.80;49.20;;;;;;4939194;28;91296;-60
2023/01/29 04:06:33;;;;;;;62.37;52.63;;;17.00;48.30;;;;;;4938663;28;91332;-59
2023/01/29 04:09:21;;;;;;;65.60;54.25;;;17.20;47.60;;;;;;4929635;28;94472;-49
2023/01/29 04:12:13;;;;;;;63.35;54.10;;;17.40;47.20;;;;;;4929970;28;93541;-50
2023/01/29 04:14:39;;;;;;;62.38;52.45;;;17.50;46.90;;;;;;4935423;28;90486;-58
2023/01/29 04:17:22;;;;;;;64.97;54.22;;;17.50;46.80;;;;;;4932755;28;89971;-59
2023/01/29 04:19:48;;;;;;;64.50;54.58;;;17.60;46.60;;;;;;4951169;28;89389;-54
2023/01/29 04:22:18;;;;;;;63.00;53.42;;;17.60;46.40;;;;;;4929342;28;93245;-55
2023/01/29 04:24:44;;;;;;;64.72;54.15;;;17.60;46.40;;;;;;4940910;28;91242;-60
2023/01/29 04:27:26;;;;;;;67.57;55.37;;;17.20;46.80;;;;;;4931579;28;92736;-60
2023/01/29 04:30:23;;;;;;;62.65;53.35;;;17.20;47.40;;;;;;4929647;28;90138;-55
2023/01/29 04:33:08;;;;;;;64.05;53.70;;;17.10;47.50;;;;;;4942711;28;95555;-60
2023/01/29 04:35:49;;;;;;;63.75;54.38;;;16.70;48.10;;;;;;4946237;28;93957;-60
2023/01/29 04:38:23;;;;;;;64.88;54.92;;;16.60;48.80;;;;;;4939895;28;94959;-57
2023/01/29 04:41:10;;;;;;;64.30;53.80;;;16.20;49.30;;;;;;4940723;28;90793;-60
2023/01/29 04:43:55;;;;;;;68.20;54.40;;;15.90;49.80;;;;;;4936964;28;95538;-59
2023/01/29 04:46:46;;;;;;;60.50;52.55;;;15.60;50.40;;;;;;4929275;28;92581;-59
2023/01/29 04:49:34;;;;;;;64.17;54.63;;;15.30;51.40;;;;;;4930630;28;91589;-58
2023/01/29 04:52:06;;;;;;;64.78;53.60;;;15.10;52.20;;;;;;4938784;28;91534;-60
2023/01/29 04:54:53;;;;;;;62.30;53.58;;;14.80;52.90;;;;;;4940415;28;91095;-56
2023/01/29 04:57:21;;;;;;;61.22;52.03;;;14.40;53.60;;;;;;4947371;28;90805;-60
2023/01/29 04:59:59;;;;;;;63.42;53.75;;;14.20;54.20;;;;;;4939762;28;89958;-57
2023/01/29 05:02:27;;;;;;;65.50;55.28;;;14.00;54.90;;;;;;4934172;28;89923;-58
2023/01/29 05:04:54;;;;;;;64.47;54.22;;;13.70;55.80;;;;;;4929961;28;95466;-60
2023/01/29 05:07:21;;;;;;;61.15;53.17;;;13.40;56.40;;;;;;4940977;28;92775;-58
2023/01/29 05:09:48;;;;;;;65.60;55.07;;;13.40;56.90;;;;;;4927775;28;89872;-55
2023/01/29 05:12:16;;;;;;;67.30;56.05;;;13.10;57.60;;;;;;4940928;28;88930;-54
2023/01/29 05:14:44;;;;;;;66.65;54.95;;;12.80;58.60;;;;;;4949193;28;91185;-59
2023/01/29 05:17:19;;;;;;;67.13;55.88;;;12.70;58.50;;;;;;4946326;28;91241;-61
2023/01/29 05:19:46;;;;;;;66.88;55.75;;;12.60;58.90;;;;;;4928913;28;97056;-50
2023/01/29 05:22:15;;;;;;;65.85;55.47;;;12.50;59.00;;;;;;4939447;28;92763;-59
2023/01/29 05:24:40;;;;;;;68.82;55.92;;;12.50;59.40;;;;;;4929230;28;95265;-61
2023/01/29 05:29:58;;;;;;;67.82;56.20;;;12.30;59.70;;;;;;4946307;28;90128;-56
2023/01/29 05:32:24;;;;;;;67.78;56.70;;;12.30;59.90;;;;;;4922564;28;93161;-52
2023/01/29 05:34:49;;;;;;;66.13;55.20;;;12.20;60.00;;;;;;4930809;28;90395;-60
2023/01/29 05:37:15;;;;;;;64.63;54.93;;;12.10;60.20;;;;;;4940499;28;93068;-58
2023/01/29 05:39:41;;;;;;;67.30;56.72;;;12.10;60.30;;;;;;4934960;28;93721;-58
2023/01/29 05:42:06;;;;;;;66.00;55.20;;;12.10;60.40;;;;;;4935421;28;90335;-60
2023/01/29 05:44:32;;;;;;;66.67;54.77;;;12.00;60.70;;;;;;4935021;28;97110;-58
2023/01/29 05:46:57;;;;;;;62.43;53.43;;;12.00;60.50;;;;;;4937259;28;94520;-52
2023/01/29 05:49:23;;;;;;;59.27;52.40;;;12.10;60.60;;;;;;4936460;28;97165;-60
2023/01/29 05:51:49;;;;;;;59.47;51.60;;;12.00;60.80;;;;;;4936774;28;93891;-59
2023/01/29 05:54:14;;;;;;;64.30;53.90;;;12.00;61.30;;;;;;4930456;28;92380;-56
2023/01/29 05:56:40;;;;;;;66.80;55.10;;;11.90;61.30;;;;;;4938602;28;92040;-59
2023/01/29 05:59:06;;;;;;;62.67;53.70;;;12.00;61.10;;;;;;4936915;28;90466;-59
2023/01/29 06:01:32;;;;;;;64.13;54.22;;;11.90;61.20;;;;;;4931617;28;92077;-56
2023/01/29 06:03:57;;;;;;;64.07;54.92;;;12.00;61.20;;;;;;4938091;28;93674;-61
2023/01/29 06:06:23;;;;;;;68.88;55.72;;;11.90;61.10;;;;;;4933744;28;91360;-59
2023/01/29 06:08:49;;;;;;;65.10;54.35;;;11.90;61.20;;;;;;4929295;28;91890;-60
2023/01/29 06:11:17;;;;;;;66.50;55.10;;;11.90;61.30;;;;;;4949970;28;95510;-57
2023/01/29 06:13:43;;;;;;;65.60;55.90;;;11.80;61.30;;;;;;4939993;28;93909;-59
2023/01/29 06:16:10;;;;;;;67.90;56.85;;;11.80;61.30;;;;;;4943290;28;94527;-59
2023/01/29 06:18:37;;;;;;;64.37;54.97;;;11.80;61.60;;;;;;4925194;28;92886;-60
2023/01/29 06:21:04;;;;;;;67.27;56.10;;;11.80;61.90;;;;;;4945602;28;90740;-60
2023/01/29 06:23:31;;;;;;;68.43;56.72;;;11.80;61.70;;;;;;4942457;28;93423;-59
2023/01/29 06:26:01;;;;;;;66.87;56.40;;;11.70;61.80;;;;;;4943278;28;92321;-54
2023/01/29 06:28:27;;;;;;;67.53;56.53;;;11.70;61.90;;;;;;4935923;28;95973;-60
2023/01/29 06:30:55;;;;;;;69.75;57.40;;;11.70;61.90;;;;;;4929425;28;92714;-60
2023/01/29 06:33:21;;;;;;;65.88;55.88;;;11.70;62.10;;;;;;4911962;28;93054;-51
2023/01/29 06:35:46;;;;;;;66.33;55.33;;;11.60;61.90;;;;;;4933826;28;93856;-55
2023/01/29 06:38:12;;;;;;;66.93;55.13;;;11.70;61.70;;;;;;4937146;28;98621;-50
2023/01/29 06:40:38;;;;;;;65.10;55.30;;;11.70;61.60;;;;;;4940505;28;90425;-59
2023/01/29 06:43:03;;;;;;;66.67;55.27;;;11.80;61.40;;;;;;4938941;28;96144;-59
2023/01/29 06:45:29;;;;;;;65.67;55.47;;;11.70;61.30;;;;;;4942705;28;92025;-58
2023/01/29 06:47:55;;;;;;;67.22;56.08;;;11.80;61.40;;;;;;4934584;28;94068;-50
2023/01/29 06:50:21;;;;;;;65.37;55.50;;;11.70;61.50;;;;;;4932798;28;89263;-60
2023/01/29 06:52:46;;;;;;;68.93;56.80;;;11.70;61.40;;;;;;4929419;28;96208;-59
2023/01/29 06:55:12;;;;;;;68.22;57.42;;;11.70;61.50;;;;;;4937375;28;92815;-60
2023/01/29 06:57:37;;;;;;;63.67;55.70;;;11.70;61.40;;;;;;4928053;28;94060;-58
2023/01/29 07:00:05;;;;;;;64.95;55.25;;;11.70;61.50;;;;;;4930851;28;94549;-46
2023/01/29 07:02:31;;;;;;;66.07;55.42;;;11.70;61.40;;;;;;4938342;28;93918;-60
2023/01/29 07:04:56;;;;;;;63.30;55.03;;;11.70;61.30;;;;;;4945369;28;90279;-60
2023/01/29 07:07:22;;;;;;;66.37;55.47;;;11.80;61.40;;;;;;4943807;28;91941;-55
2023/01/29 07:09:47;;;;;;;65.78;54.83;;;11.70;61.40;;;;;;4935918;28;90468;-59
2023/01/29 07:12:13;;;;;;;67.95;54.83;;;11.70;61.50;;;;;;4941602;28;90171;-60
2023/01/29 07:14:38;;;;;;;64.85;54.60;;;11.60;61.70;;;;;;4938074;28;94484;-60
2023/01/29 07:17:04;;;;;;;69.00;56.38;;;11.60;61.70;;;;;;4942158;28;93349;-60
2023/01/29 07:19:30;;;;;;;64.40;54.47;;;11.60;61.70;;;;;;4934583;28;95559;-59
2023/01/29 07:21:55;;;;;;;66.90;56.43;;;11.60;61.80;;;;;;4942259;28;93697;-60
2023/01/29 07:24:21;;;;;;;65.28;55.38;;;11.60;62.00;;;;;;4935435;28;91635;-59
2023/01/29 07:26:46;;;;;;;67.43;56.60;;;11.50;61.90;;;;;;4944057;28;93303;-59
2023/01/29 07:29:12;;;;;;;65.27;55.00;;;11.50;62.00;;;;;;4930986;28;95896;-59
2023/01/29 07:31:38;;;;;;;69.38;58.13;;;11.50;62.00;;;;;;4935626;28;93078;-59
2023/01/29 07:34:03;;;;;;;69.60;58.03;;;11.50;62.10;;;;;;4934427;28;94569;-59
2023/01/29 07:36:29;;;;;;;66.75;55.50;;;11.50;62.00;;;;;;4925109;28;92099;-59
2023/01/29 07:38:55;;;;;;;67.67;55.57;;;11.50;62.10;;;;;;4939731;28;93277;-59
2023/01/29 07:41:21;;;;;;;67.05;56.35;;;11.50;62.00;;;;;;4934479;28;94362;-55
2023/01/29 07:43:47;;;;;;;67.45;55.72;;;11.50;62.10;;;;;;4942582;28;92001;-58
2023/01/29 07:46:12;;;;;;;64.33;54.93;;;11.50;62.10;;;;;;4933872;28;93227;-55
2023/01/29 07:48:38;;;;;;;69.13;56.60;;;11.50;62.10;;;;;;4932382;28;92805;-59
2023/01/29 07:51:04;;;;;;;66.87;56.10;;;11.50;61.90;;;;;;4932978;28;90067;-59
2023/01/29 07:53:30;;;;;;;68.77;56.17;;;11.50;62.20;;;;;;4937477;28;93790;-59
2023/01/29 07:55:55;;;;;;;61.80;53.97;;;12.10;60.70;;;;;;4944557;28;92182;-58
2023/01/29 07:58:21;;;;;;;64.20;54.33;;;13.00;59.50;;;;;;4940439;28;90027;-60
2023/01/29 08:00:47;;;;;;;66.90;55.43;;;13.90;56.80;;;;;;4926508;28;92347;-60
2023/01/29 08:03:15;;;;;;;65.68;54.22;;;14.80;54.40;;;;;;4933906;28;90160;-59
2023/01/29 08:05:42;;;;;;;67.70;54.20;;;15.50;52.60;;;;;;4940033;28;94870;-60
2023/01/29 08:08:08;;;;;;;64.55;54.10;;;15.90;51.20;;;;;;4930947;28;93589;-59
2023/01/29 08:10:35;;;;;;;66.38;54.63;;;16.30;50.20;;;;;;4932680;28;96145;-60
2023/01/29 08:13:02;;;;;;;67.15;54.85;;;16.60;49.50;;;;;;4931794;28;92023;-53
2023/01/29 08:15:28;;;;;;;63.65;54.15;;;16.80;48.70;;;;;;4931898;28;94899;-59
2023/01/29 08:17:54;;;;;;;64.63;54.95;;;17.00;48.20;;;;;;4950501;28;92817;-55
2023/01/29 08:20:21;;;;;;;65.45;54.83;;;17.10;47.90;;;;;;4933776;28;94508;-50
2023/01/29 08:22:47;;;;;;;64.75;54.40;;;17.20;47.70;;;;;;4928608;28;94952;-60
2023/01/29 08:25:13;;;;;;;65.22;55.03;;;17.20;47.60;;;;;;4930840;28;93279;-60
2023/01/29 08:27:39;;;;;;;65.85;54.63;;;17.00;47.70;;;;;;4928336;28;90863;-60
2023/01/29 08:30:06;;;;;;;65.32;54.90;;;16.80;48.20;;;;;;4949693;28;90558;-54
2023/01/29 08:32:31;;;;;;;64.70;54.90;;;16.60;48.90;;;;;;4926290;28;91021;-57
2023/01/29 08:34:57;;;;;;;67.10;55.88;;;16.50;49.00;;;;;;4925896;28;96343;-59
2023/01/29 08:37:23;;;;;;;65.32;54.50;;;16.40;49.40;;;;;;4932179;28;91410;-60
2023/01/29 08:39:48;;;;;;;63.75;54.03;;;15.80;50.40;;;;;;4937421;28;95587;-57
2023/01/29 08:42:14;;;;;;;67.75;56.13;;;15.70;51.10;;;;;;4935820;28;91552;-56
2023/01/29 08:44:40;;;;;;;66.18;54.67;;;15.60;51.90;;;;;;4938203;28;89950;-59
2023/01/29 08:47:06;;;;;;;66.95;54.70;;;15.50;51.60;;;;;;4937048;28;91606;-59
2023/01/29 08:49:31;;;;;;;65.82;54.95;;;15.30;52.50;;;;;;4935975;28;93703;-60
2023/01/29 08:51:57;;;;;;;65.30;54.40;;;15.00;52.50;;;;;;4938063;28;90893;-60
2023/01/29 08:54:23;;;;;;;69.72;56.75;;;14.50;53.80;;;;;;4943190;28;89740;-59
2023/01/29 08:56:49;;;;;;;68.15;56.35;;;14.20;54.70;;;;;;4938434;28;93695;-57
2023/01/29 08:59:14;;;;;;;69.93;56.60;;;14.10;55.10;;;;;;4942950;28;94074;-58
2023/01/29 09:01:40;;;;;;;67.95;56.50;;;13.90;55.70;;;;;;4944719;28;91987;-51
2023/01/29 09:04:06;;;;;;;69.65;57.42;;;13.80;56.00;;;;;;4940344;28;90687;-59
2023/01/29 09:06:32;;;;;;;70.32;56.95;;;13.80;56.10;;;;;;4938209;28;93423;-59
2023/01/29 09:08:57;;;;;;;67.93;57.35;;;13.70;56.40;;;;;;4942234;28;92620;-59
2023/01/29 09:11:23;;;;;;;70.93;56.88;;;13.60;56.60;;;;;;4937337;28;91846;-59
2023/01/29 09:13:49;;;;;;;69.68;57.10;;;13.60;56.80;;;;;;4953793;28;92052;-60
2023/01/29 09:16:14;;;;;;;67.80;57.10;;;13.50;57.00;;;;;;4933895;28;89734;-49
2023/01/29 09:18:40;;;;;;;65.50;55.45;;;13.40;57.30;;;;;;4936745;28;92148;-59
2023/01/29 09:21:06;;;;;;;67.20;56.55;;;13.40;57.10;;;;;;4938424;28;95368;-58
2023/01/29 09:23:32;;;;;;;70.47;57.72;;;13.30;57.50;;;;;;4934072;28;93308;-57
2023/01/29 09:25:57;;;;;;;66.43;56.00;;;13.30;57.80;;;;;;4945513;28;91156;-60
2023/01/29 09:28:23;;;;;;;66.38;55.47;;;13.20;58.00;;;;;;4929581;28;94761;-59
2023/01/29 09:30:49;;;;;;;67.60;57.40;;;13.10;58.10;;;;;;4944069;28;93677;-59
2023/01/29 09:33:15;;;;;;;71.15;57.92;;;13.00;58.60;;;;;;4940199;28;92819;-58
2023/01/29 09:35:41;;;;;;;68.60;56.45;;;12.80;59.00;;;;;;4932495;28;92691;-60
2023/01/29 09:38:08;;;;;;;65.85;55.65;;;12.70;59.20;;;;;;4945323;28;91626;-59
2023/01/29 09:40:51;;;;;;;68.10;56.67;;;12.70;59.30;;;;;;4934631;28;90967;-59
2023/01/29 09:43:26;;;;;;;65.25;55.60;;;12.70;59.50;;;;;;4944813;28;89566;-51
2023/01/29 09:46:12;;;;;;;60.28;52.42;;;12.60;59.50;;;;;;4943470;28;93869;-59
2023/01/29 09:48:38;;;;;;;62.05;52.42;;;12.60;59.90;;;;;;4937975;28;93863;-56
2023/01/29 09:51:13;;;;;;;61.40;53.63;;;12.50;59.90;;;;;;4939718;28;97021;-50
2023/01/29 09:53:45;;;;;;;65.32;55.08;;;12.50;60.00;;;;;;4937270;28;91447;-58
2023/01/29 09:56:16;;;;;;;63.40;53.80;;;12.50;60.00;;;;;;4953500;28;96064;-59
2023/01/29 09:58:43;;;;;;;63.60;54.90;;;12.40;60.20;;;;;;4932047;28;90919;-58
2023/01/29 10:01:45;;;;;;;67.97;55.95;;;12.40;60.30;;;;;;4929856;28;94719;-57
2023/01/29 10:04:38;;;;;;;66.03;54.78;;;12.40;60.30;;;;;;4942680;28;93612;-57
2023/01/29 10:07:07;;;;;;;69.18;56.90;;;12.40;60.50;;;;;;4938224;28;89141;-59
2023/01/29 10:10:05;;;;;;;68.72;56.75;;;12.30;60.40;;;;;;4942203;28;92723;-50
2023/01/29 10:12:42;;;;;;;67.57;55.92;;;12.30;60.80;;;;;;4917755;28;91450;-59
2023/01/29 10:15:26;;;;;;;69.10;57.05;;;12.20;60.80;;;;;;4940712;28;92232;-49
2023/01/29 10:18:08;;;;;;;68.38;55.45;;;12.20;60.80;;;;;;4938197;28;90113;-57
2023/01/29 10:21:01;;;;;;;66.20;54.42;;;12.20;60.90;;;;;;4930740;28;91317;-59
2023/01/29 10:23:32;;;;;;;65.65;55.00;;;12.20;60.80;;;;;;4936995;28;91359;-59
2023/01/29 10:25:58;;;;;;;67.95;54.75;;;12.30;60.90;;;;;;4943899;28;92447;-56
2023/01/29 10:28:30;;;;;;;64.15;53.90;;;12.30;61.20;;;;;;4942420;28;89566;-59
2023/01/29 10:31:00;;;;;;;62.55;53.33;;;12.20;61.00;;;;;;4936367;28;93095;-59
2023/01/29 10:33:50;;;;;;;65.50;54.38;;;12.30;60.80;;;;;;4935724;28;91524;-58
2023/01/29 10:36:26;;;;;;;65.88;55.33;;;12.30;60.70;;;;;;4933358;28;89949;-58
2023/01/29 10:38:52;;;;;;;64.22;54.13;;;12.40;60.60;;;;;;4937024;28;91807;-49
2023/01/29 10:41:46;;;;;;;65.30;53.58;;;12.40;60.60;;;;;;4934307;28;98267;-49
2023/01/29 10:44:33;;;;;;;64.20;53.70;;;12.30;60.80;;;;;;4940883;28;96261;-58
2023/01/29 10:47:20;;;;;;;67.75;55.60;;;12.30;60.80;;;;;;4938668;28;94869;-57
2023/01/29 10:50:18;;;;;;;62.95;53.67;;;12.30;60.60;;;;;;4940602;28;90868;-54
2023/01/29 10:52:59;;;;;;;61.17;52.70;;;12.40;60.50;;;;;;4957493;28;93124;-56
2023/01/29 10:55:28;;;;;;;60.40;52.13;;;12.40;60.40;;;;;;4942880;28;93436;-59
2023/01/29 10:57:53;;;;;;;62.65;53.28;;;12.30;60.50;;;;;;4938789;28;95454;-59
2023/01/29 11:00:36;;;;;;;64.30;54.10;;;12.40;60.60;;;;;;4945850;28;89119;-59
2023/01/29 11:03:21;;;;;;;64.90;54.17;;;12.40;60.60;;;;;;4943881;28;91955;-50
2023/01/29 11:06:15;;;;;;;64.00;53.67;;;12.40;60.40;;;;;;4948531;28;91703;-56
2023/01/29 11:08:57;;;;;;;61.72;52.72;;;12.50;60.20;;;;;;4932215;28;92686;-58
2023/01/29 11:11:40;;;;;;;63.85;53.20;;;12.40;60.10;;;;;;4942516;28;93482;-59
2023/01/29 11:14:17;;;;;;;61.67;52.85;;;12.50;60.10;;;;;;4930031;28;96069;-59
2023/01/29 11:16:45;;;;;;;64.10;53.40;;;12.40;60.30;;;;;;4943609;28;91510;-58
2023/01/29 11:19:11;;;;;;;62.42;52.95;;;12.50;59.90;;;;;;4928000;28;91774;-55
2023/01/29 11:22:16;;;;;;;66.15;53.53;;;12.50;60.00;;;;;;4947934;28;89996;-58
2023/01/29 11:24:42;;;;;;;61.72;52.35;;;12.50;60.00;;;;;;4938166;28;93610;-56
2023/01/29 11:27:19;;;;;;;62.83;52.72;;;12.60;60.00;;;;;;4941903;28;91774;-58
2023/01/29 11:29:50;;;;;;;62.33;52.83;;;12.60;59.80;;;;;;4925967;28;94224;-58
2023/01/29 11:32:18;;;;;;;62.95;53.78;;;12.60;59.50;;;;;;4929610;28;98071;-59
2023/01/29 11:35:19;;;;;;;66.22;54.80;;;12.70;59.40;;;;;;4932333;28;91185;-59
2023/01/29 11:37:45;;;;;;;64.63;55.00;;;12.70;59.30;;;;;;4931169;28;93099;-58
2023/01/29 11:40:17;;;;;;;64.03;53.60;;;12.80;59.20;;;;;;4944024;28;90233;-58
2023/01/29 11:42:43;;;;;;;65.25;54.00;;;12.80;59.20;;;;;;4929328;28;93480;-59
2023/01/29 11:45:31;;;;;;;63.17;53.25;;;12.70;59.10;;;;;;4939578;28;94654;-59
2023/01/29 11:47:57;;;;;;;64.22;52.88;;;12.70;59.30;;;;;;4946302;28;90816;-59
2023/01/29 11:50:32;;;;;;;65.53;54.08;;;12.80;59.10;;;;;;4943118;28;90537;-47
2023/01/29 11:53:02;;;;;;;65.28;54.13;;;12.70;59.30;;;;;;4946351;28;91006;-49
2023/01/29 11:55:34;;;;;;;62.08;52.75;;;12.80;59.20;;;;;;4932353;28;93965;-58
2023/01/29 11:58:11;;;;;;;61.05;51.85;;;12.80;59.10;;;;;;4936822;28;94145;-55
2023/01/29 12:00:39;;;;;;;60.60;51.55;;;12.80;59.00;;;;;;4933993;28;94835;-52
2023/01/29 12:03:10;;;;;;;65.25;55.20;;;12.80;59.00;;;;;;4956639;28;90083;-59
2023/01/29 12:05:39;;;;;;;62.70;53.33;;;12.80;59.00;;;;;;4933694;28;94979;-59
2023/01/29 12:08:15;;;;;;;65.72;54.50;;;12.80;59.10;;;;;;4934931;28;93969;-59
2023/01/29 12:10:42;;;;;;;62.50;52.83;;;12.90;59.00;;;;;;4934343;28;90435;-57
2023/01/29 12:13:14;;;;;;;67.47;55.03;;;12.90;58.90;;;;;;4931870;28;90840;-58
2023/01/29 12:15:41;;;;;;;64.28;53.40;;;12.80;59.00;;;;;;4948495;28;92224;-50
2023/01/29 12:18:28;;;;;;;63.80;53.92;;;12.90;59.00;;;;;;4949145;28;94013;-58
2023/01/29 12:20:56;;;;;;;64.65;53.47;;;12.80;59.00;;;;;;4940706;28;90069;-59
2023/01/29 12:23:48;;;;;;;63.55;53.50;;;12.90;58.90;;;;;;4937496;28;95407;-50
2023/01/29 12:26:19;;;;;;;63.22;52.85;;;12.90;58.90;;;;;;4934666;28;92049;-48
2023/01/29 12:29:04;;;;;;;62.13;52.30;;;12.90;58.70;;;;;;4931842;28;91780;-58
2023/01/29 12:31:49;;;;;;;62.72;53.22;;;12.90;58.70;;;;;;4931788;28;92777;-58
2023/01/29 12:34:47;;;;;;;64.20;53.38;;;12.90;58.60;;;;;;4938189;28;92076;-57
2023/01/29 12:37:39;;;;;;;62.65;52.63;;;12.90;58.70;;;;;;4936441;28;93262;-59
2023/01/29 12:40:16;;;;;;;61.28;52.17;;;12.90;58.70;;;;;;4932078;28;93597;-59
2023/01/29 12:42:49;;;;;;;64.30;53.75;;;12.90;58.70;;;;;;4938856;28;92920;-57
2023/01/29 12:45:24;;;;;;;63.13;53.10;;;12.90;58.70;;;;;;4952302;28;89724;-55
2023/01/29 12:48:09;;;;;;;61.88;51.92;;;12.90;58.80;;;;;;4935920;28;92784;-58
2023/01/29 12:50:36;;;;;;;63.95;52.17;;;12.80;59.00;;;;;;4936592;28;91810;-59
2023/01/29 12:53:23;;;;;;;61.55;52.47;;;12.80;58.80;;;;;;4934506;28;92654;-58
2023/01/29 12:56:11;;;;;;;63.72;53.75;;;12.90;59.00;;;;;;4942196;28;89891;-57
2023/01/29 12:58:49;;;;;;;63.72;52.78;;;12.80;59.10;;;;;;4952701;28;90043;-58
2023/01/29 13:01:37;;;;;;;59.83;51.33;;;12.80;59.50;;;;;;4940939;28;92163;-59
2023/01/29 13:04:38;;;;;;;60.35;51.40;;;13.00;59.20;;;;;;4930219;28;93315;-56
2023/01/29 13:07:17;;;;;;;60.83;51.63;;;13.30;58.40;;;;;;4926235;28;93901;-57
2023/01/29 13:09:49;;;;;;;60.65;52.38;;;13.50;58.00;;;;;;4936293;28;91914;-54
2023/01/29 13:12:17;;;;;;;62.38;52.15;;;13.50;57.70;;;;;;4934876;28;91957;-57
2023/01/29 13:14:56;;;;;;;58.38;50.83;;;13.60;57.50;;;;;;4936249;28;90769;-59
2023/01/29 13:17:44;;;;;;;63.45;52.67;;;13.60;57.60;;;;;;4929211;28;95244;-59
2023/01/29 13:20:28;;;;;;;60.33;51.58;;;13.70;57.40;;;;;;4932709;28;94972;-58
2023/01/29 13:23:03;;;;;;;61.50;52.03;;;13.90;56.90;;;;;;4926485;28;94522;-59
2023/01/29 13:25:29;;;;;;;59.88;51.58;;;14.00;56.50;;;;;;4934209;28;94718;-57
2023/01/29 13:27:54;;;;;;;61.47;51.67;;;14.00;56.90;;;;;;4938412;28;92902;-53